sensor_id;sensor_type;location;lat;lon;timestamp;P1;durP1;ratioP1;P2;durP2;ratioP2
34353;SDS011;20618;0.000;0.000;2023-07-31T00:00:16;1.65;;;1.02;;
34353;SDS011;20618;0.000;0.000;2023-07-31T00:02:42;2.15;;;1.00;;
34353;SDS011;20618;0.000;0.000;2023-07-31T00:05:08;2.15;;;1.08;;
34353;SDS011;20618;0.000;0.000;2023-07-31T00:07:35;3.53;;;1.40;;
34353;SDS011;20618;0.000;0.000;2023-07-31T00:10:01;1.70;;;0.90;;
34353;SDS011;20618;0.000;0.000;2023-07-31T00:12:27;2.75;;;1.35;;
34353;SDS011;20618;0.000;0.000;2023-07-31T00:14:53;2.30;;;1.30;;
34353;SDS011;20618;0.000;0.000;2023-07-31T00:17:20;1.63;;;1.00;;
34353;SDS011;20618;0.000;0.000;2023-07-31T00:19:46;2.28;;;1.02;;
34353;SDS011;20618;0.000;0.000;2023-07-31T00:22:14;2.33;;;1.20;;
34353;SDS011;20618;0.000;0.000;2023-07-31T00:24:40;2.47;;;1.20;;
34353;SDS011;20618;0.000;0.000;2023-07-31T00:27:06;2.97;;;1.20;;
34353;SDS011;20618;0.000;0.000;2023-07-31T00:29:32;1.42;;;0.90;;
34353;SDS011;20618;0.000;0.000;2023-07-31T00:31:58;2.17;;;1.15;;
34353;SDS011;20618;0.000;0.000;2023-07-31T00:34:25;1.88;;;1.17;;
34353;SDS011;20618;0.000;0.000;2023-07-31T00:36:51;2.63;;;1.10;;
34353;SDS011;20618;0.000;0.000;2023-07-31T00:39:17;2.10;;;1.10;;
34353;SDS011;20618;0.000;0.000;2023-07-31T00:41:43;2.60;;;1.30;;
34353;SDS011;20618;0.000;0.000;2023-07-31T00:44:10;1.60;;;1.00;;
34353;SDS011;20618;0.000;0.000;2023-07-31T00:46:36;1.80;;;1.10;;
34353;SDS011;20618;0.000;0.000;2023-07-31T00:49:02;1.88;;;1.10;;
34353;SDS011;20618;0.000;0.000;2023-07-31T00:51:29;2.55;;;1.25;;
34353;SDS011;20618;0.000;0.000;2023-07-31T00:53:55;3.08;;;1.23;;
34353;SDS011;20618;0.000;0.000;2023-07-31T00:56:22;1.92;;;0.90;;
34353;SDS011;20618;0.000;0.000;2023-07-31T00:58:49;2.13;;;1.20;;
34353;SDS011;20618;0.000;0.000;2023-07-31T01:01:15;2.10;;;1.10;;
34353;SDS011;20618;0.000;0.000;2023-07-31T01:03:41;3.17;;;1.10;;
34353;SDS011;20618;0.000;0.000;2023-07-31T01:11:28;4.00;;;1.20;;
34353;SDS011;20618;0.000;0.000;2023-07-31T01:13:55;2.17;;;1.30;;
34353;SDS011;20618;0.000;0.000;2023-07-31T01:16:21;2.72;;;1.20;;
34353;SDS011;20618;0.000;0.000;2023-07-31T01:18:47;2.78;;;1.30;;
34353;SDS011;20618;0.000;0.000;2023-07-31T01:26:21;2.20;;;1.20;;
34353;SDS011;20618;0.000;0.000;2023-07-31T01:28:56;2.22;;;1.05;;
34353;SDS011;20618;0.000;0.000;2023-07-31T01:31:26;3.97;;;1.33;;
34353;SDS011;20618;0.000;0.000;2023-07-31T01:33:56;2.83;;;1.30;;
34353;SDS011;20618;0.000;0.000;2023-07-31T01:36:22;2.63;;;1.20;;
34353;SDS011;20618;0.000;0.000;2023-07-31T01:38:48;2.33;;;1.30;;
34353;SDS011;20618;0.000;0.000;2023-07-31T01:41:18;2.67;;;1.30;;
34353;SDS011;20618;0.000;0.000;2023-07-31T01:43:45;3.67;;;1.10;;
34353;SDS011;20618;0.000;0.000;2023-07-31T01:46:11;1.90;;;1.10;;
34353;SDS011;20618;0.000;0.000;2023-07-31T01:48:37;2.83;;;1.42;;
34353;SDS011;20618;0.000;0.000;2023-07-31T01:51:03;2.83;;;1.20;;
34353;SDS011;20618;0.000;0.000;2023-07-31T01:53:30;3.53;;;1.58;;
34353;SDS011;20618;0.000;0.000;2023-07-31T01:55:56;2.88;;;1.30;;
34353;SDS011;20618;0.000;0.000;2023-07-31T01:58:23;2.88;;;1.10;;
34353;SDS011;20618;0.000;0.000;2023-07-31T02:00:49;4.30;;;1.30;;
34353;SDS011;20618;0.000;0.000;2023-07-31T02:03:15;3.45;;;1.50;;
34353;SDS011;20618;0.000;0.000;2023-07-31T02:05:47;2.78;;;1.45;;
34353;SDS011;20618;0.000;0.000;2023-07-31T02:08:14;2.17;;;1.38;;
34353;SDS011;20618;0.000;0.000;2023-07-31T02:10:40;3.03;;;1.33;;
34353;SDS011;20618;0.000;0.000;2023-07-31T02:13:07;2.58;;;1.50;;
34353;SDS011;20618;0.000;0.000;2023-07-31T02:15:34;4.57;;;1.00;;
34353;SDS011;20618;0.000;0.000;2023-07-31T02:18:00;2.30;;;1.10;;
34353;SDS011;20618;0.000;0.000;2023-07-31T02:20:26;2.22;;;1.25;;
34353;SDS011;20618;0.000;0.000;2023-07-31T02:22:52;2.85;;;1.50;;
34353;SDS011;20618;0.000;0.000;2023-07-31T02:25:18;3.20;;;1.42;;
34353;SDS011;20618;0.000;0.000;2023-07-31T02:27:45;2.13;;;1.05;;
34353;SDS011;20618;0.000;0.000;2023-07-31T02:30:11;4.00;;;1.42;;
34353;SDS011;20618;0.000;0.000;2023-07-31T02:32:37;2.58;;;1.30;;
34353;SDS011;20618;0.000;0.000;2023-07-31T02:35:03;3.42;;;1.20;;
34353;SDS011;20618;0.000;0.000;2023-07-31T02:37:30;2.08;;;1.38;;
34353;SDS011;20618;0.000;0.000;2023-07-31T02:39:56;2.17;;;1.20;;
34353;SDS011;20618;0.000;0.000;2023-07-31T02:42:22;2.40;;;1.40;;
34353;SDS011;20618;0.000;0.000;2023-07-31T02:44:48;2.63;;;1.40;;
34353;SDS011;20618;0.000;0.000;2023-07-31T02:47:16;3.90;;;1.60;;
34353;SDS011;20618;0.000;0.000;2023-07-31T02:49:42;3.00;;;1.40;;
34353;SDS011;20618;0.000;0.000;2023-07-31T02:52:08;2.63;;;1.45;;
34353;SDS011;20618;0.000;0.000;2023-07-31T02:54:34;3.42;;;1.50;;
34353;SDS011;20618;0.000;0.000;2023-07-31T02:57:01;4.35;;;1.25;;
34353;SDS011;20618;0.000;0.000;2023-07-31T02:59:27;3.92;;;1.33;;
34353;SDS011;20618;0.000;0.000;2023-07-31T03:01:54;4.57;;;1.55;;
34353;SDS011;20618;0.000;0.000;2023-07-31T03:04:20;3.22;;;1.60;;
34353;SDS011;20618;0.000;0.000;2023-07-31T03:06:46;2.63;;;1.35;;
34353;SDS011;20618;0.000;0.000;2023-07-31T03:09:12;2.63;;;1.50;;
34353;SDS011;20618;0.000;0.000;2023-07-31T03:11:38;3.58;;;1.35;;
34353;SDS011;20618;0.000;0.000;2023-07-31T03:14:05;2.10;;;1.20;;
34353;SDS011;20618;0.000;0.000;2023-07-31T03:16:31;2.70;;;1.35;;
34353;SDS011;20618;0.000;0.000;2023-07-31T03:18:57;2.40;;;1.38;;
34353;SDS011;20618;0.000;0.000;2023-07-31T03:21:23;3.33;;;1.75;;
34353;SDS011;20618;0.000;0.000;2023-07-31T03:23:49;3.88;;;1.58;;
34353;SDS011;20618;0.000;0.000;2023-07-31T03:26:15;3.55;;;1.60;;
34353;SDS011;20618;0.000;0.000;2023-07-31T03:28:41;2.58;;;1.50;;
34353;SDS011;20618;0.000;0.000;2023-07-31T03:31:08;3.58;;;1.58;;
34353;SDS011;20618;0.000;0.000;2023-07-31T03:33:34;3.58;;;1.60;;
34353;SDS011;20618;0.000;0.000;2023-07-31T03:36:00;3.35;;;1.38;;
34353;SDS011;20618;0.000;0.000;2023-07-31T03:38:27;2.65;;;1.45;;
34353;SDS011;20618;0.000;0.000;2023-07-31T03:40:53;2.67;;;1.45;;
34353;SDS011;20618;0.000;0.000;2023-07-31T03:43:19;3.20;;;1.15;;
34353;SDS011;20618;0.000;0.000;2023-07-31T03:45:45;4.28;;;1.63;;
34353;SDS011;20618;0.000;0.000;2023-07-31T03:48:11;4.07;;;1.50;;
34353;SDS011;20618;0.000;0.000;2023-07-31T03:50:38;3.28;;;1.70;;
34353;SDS011;20618;0.000;0.000;2023-07-31T03:53:04;2.65;;;1.55;;
34353;SDS011;20618;0.000;0.000;2023-07-31T03:55:30;4.05;;;1.65;;
34353;SDS011;20618;0.000;0.000;2023-07-31T03:57:56;2.65;;;1.52;;
34353;SDS011;20618;0.000;0.000;2023-07-31T04:00:22;3.50;;;1.77;;
34353;SDS011;20618;0.000;0.000;2023-07-31T04:02:48;3.47;;;1.60;;
34353;SDS011;20618;0.000;0.000;2023-07-31T04:05:15;2.65;;;1.63;;
34353;SDS011;20618;0.000;0.000;2023-07-31T04:07:41;5.80;;;2.15;;
34353;SDS011;20618;0.000;0.000;2023-07-31T04:10:07;3.90;;;1.60;;
34353;SDS011;20618;0.000;0.000;2023-07-31T04:12:33;3.25;;;1.65;;
34353;SDS011;20618;0.000;0.000;2023-07-31T04:15:00;3.67;;;1.65;;
34353;SDS011;20618;0.000;0.000;2023-07-31T04:17:26;4.22;;;1.90;;
34353;SDS011;20618;0.000;0.000;2023-07-31T04:19:52;3.45;;;1.58;;
34353;SDS011;20618;0.000;0.000;2023-07-31T04:22:18;4.20;;;1.77;;
34353;SDS011;20618;0.000;0.000;2023-07-31T04:24:44;2.30;;;1.58;;
34353;SDS011;20618;0.000;0.000;2023-07-31T04:27:10;2.53;;;1.48;;
34353;SDS011;20618;0.000;0.000;2023-07-31T04:29:37;3.67;;;1.60;;
34353;SDS011;20618;0.000;0.000;2023-07-31T04:32:05;3.08;;;1.75;;
34353;SDS011;20618;0.000;0.000;2023-07-31T04:34:31;3.53;;;1.75;;
34353;SDS011;20618;0.000;0.000;2023-07-31T04:36:57;3.47;;;1.60;;
34353;SDS011;20618;0.000;0.000;2023-07-31T04:39:23;3.17;;;1.92;;
34353;SDS011;20618;0.000;0.000;2023-07-31T04:41:49;3.53;;;1.90;;
34353;SDS011;20618;0.000;0.000;2023-07-31T04:44:15;2.30;;;1.50;;
34353;SDS011;20618;0.000;0.000;2023-07-31T04:46:41;3.22;;;1.65;;
34353;SDS011;20618;0.000;0.000;2023-07-31T04:49:08;2.72;;;1.80;;
34353;SDS011;20618;0.000;0.000;2023-07-31T04:51:34;3.15;;;1.80;;
34353;SDS011;20618;0.000;0.000;2023-07-31T04:54:00;4.70;;;2.00;;
34353;SDS011;20618;0.000;0.000;2023-07-31T04:56:26;3.35;;;1.85;;
34353;SDS011;20618;0.000;0.000;2023-07-31T04:58:52;3.88;;;1.98;;
34353;SDS011;20618;0.000;0.000;2023-07-31T05:03:54;4.05;;;1.80;;
34353;SDS011;20618;0.000;0.000;2023-07-31T05:06:20;3.45;;;2.00;;
34353;SDS011;20618;0.000;0.000;2023-07-31T05:08:46;2.90;;;2.03;;
34353;SDS011;20618;0.000;0.000;2023-07-31T05:11:12;2.88;;;1.65;;
34353;SDS011;20618;0.000;0.000;2023-07-31T05:13:39;4.13;;;1.98;;
34353;SDS011;20618;0.000;0.000;2023-07-31T05:16:05;4.40;;;1.88;;
34353;SDS011;20618;0.000;0.000;2023-07-31T05:18:31;3.97;;;1.77;;
34353;SDS011;20618;0.000;0.000;2023-07-31T05:20:57;3.67;;;1.77;;
34353;SDS011;20618;0.000;0.000;2023-07-31T05:23:23;3.55;;;1.67;;
34353;SDS011;20618;0.000;0.000;2023-07-31T05:25:49;3.40;;;1.80;;
34353;SDS011;20618;0.000;0.000;2023-07-31T05:28:15;4.43;;;1.60;;
34353;SDS011;20618;0.000;0.000;2023-07-31T05:30:42;2.92;;;1.70;;
34353;SDS011;20618;0.000;0.000;2023-07-31T05:33:08;3.88;;;1.60;;
34353;SDS011;20618;0.000;0.000;2023-07-31T05:35:34;3.72;;;1.88;;
34353;SDS011;20618;0.000;0.000;2023-07-31T05:38:00;2.70;;;1.52;;
34353;SDS011;20618;0.000;0.000;2023-07-31T05:40:26;4.38;;;1.65;;
34353;SDS011;20618;0.000;0.000;2023-07-31T05:42:52;2.63;;;1.40;;
34353;SDS011;20618;0.000;0.000;2023-07-31T05:45:18;3.22;;;1.63;;
34353;SDS011;20618;0.000;0.000;2023-07-31T05:47:45;4.00;;;2.00;;
34353;SDS011;20618;0.000;0.000;2023-07-31T05:50:11;4.28;;;1.70;;
34353;SDS011;20618;0.000;0.000;2023-07-31T05:52:38;3.00;;;1.60;;
34353;SDS011;20618;0.000;0.000;2023-07-31T05:55:04;3.42;;;1.40;;
34353;SDS011;20618;0.000;0.000;2023-07-31T05:57:30;4.03;;;1.60;;
34353;SDS011;20618;0.000;0.000;2023-07-31T05:59:56;2.75;;;1.52;;
34353;SDS011;20618;0.000;0.000;2023-07-31T06:02:23;3.72;;;1.65;;
34353;SDS011;20618;0.000;0.000;2023-07-31T06:04:49;2.88;;;1.70;;
34353;SDS011;20618;0.000;0.000;2023-07-31T06:07:15;4.82;;;1.70;;
34353;SDS011;20618;0.000;0.000;2023-07-31T06:09:41;3.63;;;1.83;;
34353;SDS011;20618;0.000;0.000;2023-07-31T06:12:07;3.20;;;1.65;;
34353;SDS011;20618;0.000;0.000;2023-07-31T06:14:34;4.28;;;1.75;;
34353;SDS011;20618;0.000;0.000;2023-07-31T06:17:00;3.15;;;1.50;;
34353;SDS011;20618;0.000;0.000;2023-07-31T06:19:26;3.95;;;1.52;;
34353;SDS011;20618;0.000;0.000;2023-07-31T06:21:52;4.20;;;1.92;;
34353;SDS011;20618;0.000;0.000;2023-07-31T06:24:18;6.40;;;1.80;;
34353;SDS011;20618;0.000;0.000;2023-07-31T06:26:45;3.15;;;1.88;;
34353;SDS011;20618;0.000;0.000;2023-07-31T06:29:12;6.78;;;1.85;;
34353;SDS011;20618;0.000;0.000;2023-07-31T06:31:38;5.15;;;1.73;;
34353;SDS011;20618;0.000;0.000;2023-07-31T06:34:04;13.05;;;2.30;;
34353;SDS011;20618;0.000;0.000;2023-07-31T06:36:30;4.32;;;1.73;;
34353;SDS011;20618;0.000;0.000;2023-07-31T06:38:56;6.30;;;1.90;;
34353;SDS011;20618;0.000;0.000;2023-07-31T06:41:22;7.50;;;1.83;;
34353;SDS011;20618;0.000;0.000;2023-07-31T06:43:48;4.75;;;1.85;;
34353;SDS011;20618;0.000;0.000;2023-07-31T06:46:15;4.97;;;1.90;;
34353;SDS011;20618;0.000;0.000;2023-07-31T06:48:41;7.10;;;2.10;;
34353;SDS011;20618;0.000;0.000;2023-07-31T06:51:07;3.97;;;1.95;;
34353;SDS011;20618;0.000;0.000;2023-07-31T06:53:33;5.70;;;2.08;;
34353;SDS011;20618;0.000;0.000;2023-07-31T06:55:59;7.10;;;2.35;;
34353;SDS011;20618;0.000;0.000;2023-07-31T06:58:25;6.43;;;1.55;;
34353;SDS011;20618;0.000;0.000;2023-07-31T07:00:51;6.78;;;1.77;;
34353;SDS011;20618;0.000;0.000;2023-07-31T07:03:18;4.28;;;1.88;;
34353;SDS011;20618;0.000;0.000;2023-07-31T07:05:45;7.68;;;2.30;;
34353;SDS011;20618;0.000;0.000;2023-07-31T07:08:11;5.70;;;2.08;;
34353;SDS011;20618;0.000;0.000;2023-07-31T07:10:37;9.20;;;2.10;;
34353;SDS011;20618;0.000;0.000;2023-07-31T07:13:04;7.50;;;1.60;;
34353;SDS011;20618;0.000;0.000;2023-07-31T07:15:30;10.02;;;2.17;;
34353;SDS011;20618;0.000;0.000;2023-07-31T07:17:56;10.45;;;1.85;;
34353;SDS011;20618;0.000;0.000;2023-07-31T07:20:22;9.50;;;2.20;;
34353;SDS011;20618;0.000;0.000;2023-07-31T07:22:48;15.90;;;2.45;;
34353;SDS011;20618;0.000;0.000;2023-07-31T07:25:14;13.32;;;2.50;;
34353;SDS011;20618;0.000;0.000;2023-07-31T07:27:41;8.10;;;2.17;;
34353;SDS011;20618;0.000;0.000;2023-07-31T07:30:07;11.57;;;2.28;;
34353;SDS011;20618;0.000;0.000;2023-07-31T07:32:33;12.73;;;2.60;;
34353;SDS011;20618;0.000;0.000;2023-07-31T07:35:00;14.40;;;2.42;;
34353;SDS011;20618;0.000;0.000;2023-07-31T07:37:26;12.57;;;2.35;;
34353;SDS011;20618;0.000;0.000;2023-07-31T07:39:52;14.32;;;2.42;;
34353;SDS011;20618;0.000;0.000;2023-07-31T07:42:18;15.73;;;2.70;;
34353;SDS011;20618;0.000;0.000;2023-07-31T07:44:44;14.27;;;2.80;;
34353;SDS011;20618;0.000;0.000;2023-07-31T07:47:10;16.27;;;2.67;;
34353;SDS011;20618;0.000;0.000;2023-07-31T07:49:37;7.68;;;2.25;;
34353;SDS011;20618;0.000;0.000;2023-07-31T07:52:03;14.02;;;2.55;;
34353;SDS011;20618;0.000;0.000;2023-07-31T07:54:30;14.02;;;2.60;;
34353;SDS011;20618;0.000;0.000;2023-07-31T07:56:56;15.45;;;2.75;;
34353;SDS011;20618;0.000;0.000;2023-07-31T07:59:22;21.40;;;3.05;;
34353;SDS011;20618;0.000;0.000;2023-07-31T08:01:48;18.10;;;2.60;;
34353;SDS011;20618;0.000;0.000;2023-07-31T08:04:15;17.95;;;2.97;;
34353;SDS011;20618;0.000;0.000;2023-07-31T08:06:41;22.05;;;2.90;;
34353;SDS011;20618;0.000;0.000;2023-07-31T08:09:07;9.95;;;2.53;;
34353;SDS011;20618;0.000;0.000;2023-07-31T08:11:34;17.35;;;3.05;;
34353;SDS011;20618;0.000;0.000;2023-07-31T08:14:00;16.67;;;2.80;;
34353;SDS011;20618;0.000;0.000;2023-07-31T08:16:26;16.15;;;2.75;;
34353;SDS011;20618;0.000;0.000;2023-07-31T08:18:52;16.35;;;2.80;;
34353;SDS011;20618;0.000;0.000;2023-07-31T08:21:18;12.68;;;2.55;;
34353;SDS011;20618;0.000;0.000;2023-07-31T08:23:45;19.48;;;3.03;;
34353;SDS011;20618;0.000;0.000;2023-07-31T08:26:15;17.10;;;2.90;;
34353;SDS011;20618;0.000;0.000;2023-07-31T08:28:41;11.73;;;2.55;;
34353;SDS011;20618;0.000;0.000;2023-07-31T08:31:07;21.00;;;2.75;;
34353;SDS011;20618;0.000;0.000;2023-07-31T08:33:34;20.13;;;3.53;;
34353;SDS011;20618;0.000;0.000;2023-07-31T08:36:00;23.10;;;2.55;;
34353;SDS011;20618;0.000;0.000;2023-07-31T08:38:26;15.65;;;2.70;;
34353;SDS011;20618;0.000;0.000;2023-07-31T08:40:54;21.00;;;3.03;;
34353;SDS011;20618;0.000;0.000;2023-07-31T08:43:20;18.45;;;3.00;;
34353;SDS011;20618;0.000;0.000;2023-07-31T08:45:48;21.08;;;2.90;;
34353;SDS011;20618;0.000;0.000;2023-07-31T08:48:15;16.00;;;2.97;;
34353;SDS011;20618;0.000;0.000;2023-07-31T08:50:41;17.70;;;2.80;;
34353;SDS011;20618;0.000;0.000;2023-07-31T08:53:08;18.02;;;2.63;;
34353;SDS011;20618;0.000;0.000;2023-07-31T08:55:34;20.05;;;3.08;;
34353;SDS011;20618;0.000;0.000;2023-07-31T08:58:01;17.50;;;3.05;;
34353;SDS011;20618;0.000;0.000;2023-07-31T09:00:28;16.25;;;3.10;;
34353;SDS011;20618;0.000;0.000;2023-07-31T09:02:59;20.35;;;2.80;;
34353;SDS011;20618;0.000;0.000;2023-07-31T09:05:28;13.60;;;2.75;;
34353;SDS011;20618;0.000;0.000;2023-07-31T09:07:54;19.92;;;2.80;;
34353;SDS011;20618;0.000;0.000;2023-07-31T09:10:21;26.13;;;3.55;;
34353;SDS011;20618;0.000;0.000;2023-07-31T09:12:48;17.00;;;2.75;;
34353;SDS011;20618;0.000;0.000;2023-07-31T09:15:14;20.85;;;2.75;;
34353;SDS011;20618;0.000;0.000;2023-07-31T09:17:40;18.38;;;3.17;;
34353;SDS011;20618;0.000;0.000;2023-07-31T09:20:19;23.55;;;3.15;;
34353;SDS011;20618;0.000;0.000;2023-07-31T09:22:47;25.57;;;3.27;;
34353;SDS011;20618;0.000;0.000;2023-07-31T09:25:22;24.42;;;2.85;;
34353;SDS011;20618;0.000;0.000;2023-07-31T09:27:50;21.50;;;3.70;;
34353;SDS011;20618;0.000;0.000;2023-07-31T09:30:16;24.50;;;3.78;;
34353;SDS011;20618;0.000;0.000;2023-07-31T09:32:44;20.70;;;3.08;;
34353;SDS011;20618;0.000;0.000;2023-07-31T09:35:13;21.52;;;3.42;;
34353;SDS011;20618;0.000;0.000;2023-07-31T09:37:40;31.00;;;3.60;;
34353;SDS011;20618;0.000;0.000;2023-07-31T09:40:06;20.98;;;3.80;;
34353;SDS011;20618;0.000;0.000;2023-07-31T09:42:32;24.40;;;3.42;;
34353;SDS011;20618;0.000;0.000;2023-07-31T09:45:08;36.65;;;4.13;;
34353;SDS011;20618;0.000;0.000;2023-07-31T09:47:35;32.83;;;3.70;;
34353;SDS011;20618;0.000;0.000;2023-07-31T09:50:04;34.38;;;4.82;;
34353;SDS011;20618;0.000;0.000;2023-07-31T09:52:34;25.42;;;4.15;;
34353;SDS011;20618;0.000;0.000;2023-07-31T09:55:00;25.92;;;3.70;;
34353;SDS011;20618;0.000;0.000;2023-07-31T09:57:27;20.95;;;3.72;;
34353;SDS011;20618;0.000;0.000;2023-07-31T09:59:53;20.40;;;3.95;;
34353;SDS011;20618;0.000;0.000;2023-07-31T10:02:23;27.20;;;3.53;;
34353;SDS011;20618;0.000;0.000;2023-07-31T10:04:49;29.77;;;3.80;;
34353;SDS011;20618;0.000;0.000;2023-07-31T10:07:17;22.52;;;3.70;;
34353;SDS011;20618;0.000;0.000;2023-07-31T10:09:44;30.25;;;4.45;;
34353;SDS011;20618;0.000;0.000;2023-07-31T10:12:11;23.40;;;3.75;;
34353;SDS011;20618;0.000;0.000;2023-07-31T10:14:38;29.10;;;3.53;;
34353;SDS011;20618;0.000;0.000;2023-07-31T10:17:05;30.95;;;4.05;;
34353;SDS011;20618;0.000;0.000;2023-07-31T10:19:32;30.15;;;3.63;;
34353;SDS011;20618;0.000;0.000;2023-07-31T10:22:00;34.38;;;4.57;;
34353;SDS011;20618;0.000;0.000;2023-07-31T10:24:28;27.60;;;4.60;;
34353;SDS011;20618;0.000;0.000;2023-07-31T10:26:56;39.78;;;4.28;;
34353;SDS011;20618;0.000;0.000;2023-07-31T10:29:23;32.15;;;3.75;;
34353;SDS011;20618;0.000;0.000;2023-07-31T10:31:50;28.40;;;3.80;;
34353;SDS011;20618;0.000;0.000;2023-07-31T10:34:16;27.98;;;4.10;;
34353;SDS011;20618;0.000;0.000;2023-07-31T10:36:43;25.85;;;3.67;;
34353;SDS011;20618;0.000;0.000;2023-07-31T10:42:11;21.85;;;3.55;;
34353;SDS011;20618;0.000;0.000;2023-07-31T10:44:37;28.30;;;3.80;;
34353;SDS011;20618;0.000;0.000;2023-07-31T10:47:06;29.83;;;3.88;;
34353;SDS011;20618;0.000;0.000;2023-07-31T10:49:32;28.90;;;3.85;;
34353;SDS011;20618;0.000;0.000;2023-07-31T10:51:59;26.98;;;3.70;;
34353;SDS011;20618;0.000;0.000;2023-07-31T10:54:25;27.65;;;3.28;;
34353;SDS011;20618;0.000;0.000;2023-07-31T10:56:53;23.63;;;3.90;;
34353;SDS011;20618;0.000;0.000;2023-07-31T10:59:19;39.40;;;4.47;;
34353;SDS011;20618;0.000;0.000;2023-07-31T11:04:24;32.13;;;4.22;;
34353;SDS011;20618;0.000;0.000;2023-07-31T11:06:57;34.63;;;4.80;;
34353;SDS011;20618;0.000;0.000;2023-07-31T11:09:32;31.30;;;4.00;;
34353;SDS011;20618;0.000;0.000;2023-07-31T11:11:59;35.90;;;4.50;;
34353;SDS011;20618;0.000;0.000;2023-07-31T11:14:25;31.40;;;4.38;;
34353;SDS011;20618;0.000;0.000;2023-07-31T11:16:52;29.00;;;3.97;;
34353;SDS011;20618;0.000;0.000;2023-07-31T11:19:22;35.22;;;5.57;;
34353;SDS011;20618;0.000;0.000;2023-07-31T11:21:49;30.02;;;3.97;;
34353;SDS011;20618;0.000;0.000;2023-07-31T11:24:15;37.92;;;4.25;;
34353;SDS011;20618;0.000;0.000;2023-07-31T11:26:48;34.13;;;4.88;;
34353;SDS011;20618;0.000;0.000;2023-07-31T11:29:15;24.25;;;3.90;;
34353;SDS011;20618;0.000;0.000;2023-07-31T11:31:42;26.30;;;3.80;;
34353;SDS011;20618;0.000;0.000;2023-07-31T11:34:08;24.70;;;3.90;;
34353;SDS011;20618;0.000;0.000;2023-07-31T11:36:34;34.30;;;4.03;;
34353;SDS011;20618;0.000;0.000;2023-07-31T11:39:09;26.17;;;4.78;;
34353;SDS011;20618;0.000;0.000;2023-07-31T11:41:36;39.67;;;4.05;;
34353;SDS011;20618;0.000;0.000;2023-07-31T11:44:02;38.95;;;4.40;;
34353;SDS011;20618;0.000;0.000;2023-07-31T11:46:30;29.02;;;4.50;;
34353;SDS011;20618;0.000;0.000;2023-07-31T11:48:59;28.33;;;3.92;;
34353;SDS011;20618;0.000;0.000;2023-07-31T11:51:26;32.40;;;4.23;;
34353;SDS011;20618;0.000;0.000;2023-07-31T11:53:55;28.35;;;4.25;;
34353;SDS011;20618;0.000;0.000;2023-07-31T11:56:22;26.52;;;4.40;;
34353;SDS011;20618;0.000;0.000;2023-07-31T11:58:56;28.90;;;3.95;;
34353;SDS011;20618;0.000;0.000;2023-07-31T12:01:23;24.88;;;4.20;;
34353;SDS011;20618;0.000;0.000;2023-07-31T12:03:49;33.17;;;4.30;;
34353;SDS011;20618;0.000;0.000;2023-07-31T12:06:16;30.25;;;4.28;;
34353;SDS011;20618;0.000;0.000;2023-07-31T12:08:42;32.65;;;3.95;;
34353;SDS011;20618;0.000;0.000;2023-07-31T12:11:09;33.35;;;3.60;;
34353;SDS011;20618;0.000;0.000;2023-07-31T12:13:35;24.02;;;3.85;;
34353;SDS011;20618;0.000;0.000;2023-07-31T12:16:02;33.40;;;4.25;;
34353;SDS011;20618;0.000;0.000;2023-07-31T12:18:29;31.30;;;4.32;;
34353;SDS011;20618;0.000;0.000;2023-07-31T12:21:00;27.25;;;4.20;;
34353;SDS011;20618;0.000;0.000;2023-07-31T12:23:26;33.42;;;4.22;;
34353;SDS011;20618;0.000;0.000;2023-07-31T12:26:03;36.58;;;4.22;;
34353;SDS011;20618;0.000;0.000;2023-07-31T12:28:29;34.00;;;4.57;;
34353;SDS011;20618;0.000;0.000;2023-07-31T12:30:59;40.22;;;4.03;;
34353;SDS011;20618;0.000;0.000;2023-07-31T12:33:35;28.77;;;3.70;;
34353;SDS011;20618;0.000;0.000;2023-07-31T12:36:03;32.35;;;3.60;;
34353;SDS011;20618;0.000;0.000;2023-07-31T12:38:30;36.70;;;4.68;;
34353;SDS011;20618;0.000;0.000;2023-07-31T12:40:56;36.20;;;4.57;;
34353;SDS011;20618;0.000;0.000;2023-07-31T12:43:22;29.75;;;4.03;;
34353;SDS011;20618;0.000;0.000;2023-07-31T12:45:48;32.00;;;4.18;;
34353;SDS011;20618;0.000;0.000;2023-07-31T12:48:14;32.92;;;5.13;;
34353;SDS011;20618;0.000;0.000;2023-07-31T12:50:41;33.65;;;4.13;;
34353;SDS011;20618;0.000;0.000;2023-07-31T12:53:07;20.98;;;3.35;;
34353;SDS011;20618;0.000;0.000;2023-07-31T12:55:33;35.58;;;4.22;;
34353;SDS011;20618;0.000;0.000;2023-07-31T12:58:01;32.30;;;4.68;;
34353;SDS011;20618;0.000;0.000;2023-07-31T13:00:28;30.50;;;4.47;;
34353;SDS011;20618;0.000;0.000;2023-07-31T13:02:54;31.63;;;4.20;;
34353;SDS011;20618;0.000;0.000;2023-07-31T13:05:20;25.90;;;4.07;;
34353;SDS011;20618;0.000;0.000;2023-07-31T13:07:47;29.80;;;4.47;;
34353;SDS011;20618;0.000;0.000;2023-07-31T13:10:14;38.30;;;4.72;;
34353;SDS011;20618;0.000;0.000;2023-07-31T13:12:40;31.75;;;4.07;;
34353;SDS011;20618;0.000;0.000;2023-07-31T13:15:06;32.30;;;4.32;;
34353;SDS011;20618;0.000;0.000;2023-07-31T13:17:33;34.50;;;4.43;;
34353;SDS011;20618;0.000;0.000;2023-07-31T13:19:59;28.38;;;3.97;;
34353;SDS011;20618;0.000;0.000;2023-07-31T13:22:25;29.42;;;4.50;;
34353;SDS011;20618;0.000;0.000;2023-07-31T13:24:52;22.27;;;3.88;;
34353;SDS011;20618;0.000;0.000;2023-07-31T13:27:18;27.90;;;4.32;;
34353;SDS011;20618;0.000;0.000;2023-07-31T13:29:46;35.10;;;4.75;;
34353;SDS011;20618;0.000;0.000;2023-07-31T13:32:12;32.55;;;4.97;;
34353;SDS011;20618;0.000;0.000;2023-07-31T13:34:39;26.75;;;4.07;;
34353;SDS011;20618;0.000;0.000;2023-07-31T13:37:05;34.75;;;3.90;;
34353;SDS011;20618;0.000;0.000;2023-07-31T13:39:31;28.52;;;4.28;;
34353;SDS011;20618;0.000;0.000;2023-07-31T13:41:58;35.03;;;5.22;;
34353;SDS011;20618;0.000;0.000;2023-07-31T13:44:25;37.75;;;4.57;;
34353;SDS011;20618;0.000;0.000;2023-07-31T13:46:51;28.33;;;4.95;;
34353;SDS011;20618;0.000;0.000;2023-07-31T13:49:17;24.30;;;4.45;;
34353;SDS011;20618;0.000;0.000;2023-07-31T13:51:43;24.35;;;4.05;;
34353;SDS011;20618;0.000;0.000;2023-07-31T13:54:09;32.75;;;4.53;;
34353;SDS011;20618;0.000;0.000;2023-07-31T13:56:40;38.45;;;5.13;;
34353;SDS011;20618;0.000;0.000;2023-07-31T13:59:06;31.95;;;4.50;;
34353;SDS011;20618;0.000;0.000;2023-07-31T14:01:32;40.63;;;4.88;;
34353;SDS011;20618;0.000;0.000;2023-07-31T14:03:58;32.55;;;4.63;;
34353;SDS011;20618;0.000;0.000;2023-07-31T14:06:25;38.95;;;5.10;;
34353;SDS011;20618;0.000;0.000;2023-07-31T14:08:51;45.20;;;5.78;;
34353;SDS011;20618;0.000;0.000;2023-07-31T14:11:17;34.03;;;4.80;;
34353;SDS011;20618;0.000;0.000;2023-07-31T14:13:43;36.60;;;4.80;;
34353;SDS011;20618;0.000;0.000;2023-07-31T14:16:09;31.90;;;4.50;;
34353;SDS011;20618;0.000;0.000;2023-07-31T14:18:36;32.17;;;4.90;;
34353;SDS011;20618;0.000;0.000;2023-07-31T14:21:02;40.78;;;6.22;;
34353;SDS011;20618;0.000;0.000;2023-07-31T14:23:28;41.50;;;4.75;;
34353;SDS011;20618;0.000;0.000;2023-07-31T14:25:54;33.30;;;4.53;;
34353;SDS011;20618;0.000;0.000;2023-07-31T14:28:20;38.70;;;5.05;;
34353;SDS011;20618;0.000;0.000;2023-07-31T14:30:46;36.15;;;5.03;;
34353;SDS011;20618;0.000;0.000;2023-07-31T14:33:12;41.17;;;4.88;;
34353;SDS011;20618;0.000;0.000;2023-07-31T14:35:38;33.20;;;4.80;;
34353;SDS011;20618;0.000;0.000;2023-07-31T14:38:05;43.58;;;4.75;;
34353;SDS011;20618;0.000;0.000;2023-07-31T14:40:31;32.58;;;4.30;;
34353;SDS011;20618;0.000;0.000;2023-07-31T14:42:57;30.25;;;4.75;;
34353;SDS011;20618;0.000;0.000;2023-07-31T14:45:23;33.53;;;4.75;;
34353;SDS011;20618;0.000;0.000;2023-07-31T14:47:49;33.00;;;4.97;;
34353;SDS011;20618;0.000;0.000;2023-07-31T14:50:16;40.80;;;5.43;;
34353;SDS011;20618;0.000;0.000;2023-07-31T14:52:42;41.28;;;4.97;;
34353;SDS011;20618;0.000;0.000;2023-07-31T14:55:08;28.80;;;3.97;;
34353;SDS011;20618;0.000;0.000;2023-07-31T14:57:34;30.13;;;4.30;;
34353;SDS011;20618;0.000;0.000;2023-07-31T15:00:01;37.28;;;4.30;;
34353;SDS011;20618;0.000;0.000;2023-07-31T15:02:29;32.22;;;4.93;;
34353;SDS011;20618;0.000;0.000;2023-07-31T15:04:57;33.83;;;5.40;;
34353;SDS011;20618;0.000;0.000;2023-07-31T15:07:23;31.85;;;4.53;;
34353;SDS011;20618;0.000;0.000;2023-07-31T15:09:49;29.33;;;4.03;;